Aviation Digital Data Service (ADDS)

Output produced by METARs form (2030 UTC 21 September 2021)
found at http://aviationweather.gov/metar/data/
 
KOEO 212015Z AUTO 31005G15KT 10SM SCT048 18/06 A3023 RMK AO2 T01810061